createdAt,value
2023-05-08T00:00:31.307Z,37.06
2023-05-08T00:02:58.132Z,37.03
2023-05-08T00:05:25.288Z,37.70
2023-05-08T00:07:53.575Z,38.11
2023-05-08T00:10:20.386Z,38.40
2023-05-08T00:12:47.222Z,37.23
2023-05-08T00:15:14.229Z,37.15
2023-05-08T00:17:41.036Z,37.58
2023-05-08T00:20:08.818Z,37.16
2023-05-08T00:22:35.764Z,39.66
2023-05-08T00:25:03.403Z,40.16
2023-05-08T00:27:30.916Z,38.43
2023-05-08T00:29:58.143Z,39.32
2023-05-08T00:32:25.504Z,39.88
2023-05-08T00:34:52.889Z,40.09
2023-05-08T00:37:19.901Z,39.25
2023-05-08T00:39:46.588Z,39.29
2023-05-08T00:42:13.365Z,36.94
2023-05-08T00:44:40.244Z,37.37
2023-05-08T00:47:08.680Z,37.96
2023-05-08T00:49:36.111Z,37.55
2023-05-08T00:52:08.720Z,36.81
2023-05-08T00:54:37.900Z,36.04
2023-05-08T00:57:07.922Z,38.45
2023-05-08T00:59:36.891Z,36.63
2023-05-08T01:02:04.144Z,37.26
2023-05-08T01:04:31.883Z,37.50
2023-05-08T01:06:59.418Z,37.84
2023-05-08T01:09:26.484Z,40.94
2023-05-08T01:12:25.767Z,37.58
2023-05-08T01:14:58.404Z,37.64
2023-05-08T01:17:43.328Z,37.99
2023-05-08T01:20:29.113Z,38.82
2023-05-08T01:23:28.212Z,37.92
2023-05-08T01:26:28.740Z,37.53
2023-05-08T01:29:24.990Z,37.07
2023-05-08T01:32:24.387Z,37.82
2023-05-08T01:35:06.122Z,38.71
2023-05-08T01:37:49.431Z,38.68
2023-05-08T01:40:47.591Z,38.72
2023-05-08T01:43:19.045Z,40.48
2023-05-08T01:45:50.299Z,39.49
2023-05-08T01:48:44.914Z,38.49
2023-05-08T01:51:20.772Z,40.29
2023-05-08T01:53:52.521Z,39.27
2023-05-08T01:56:23.002Z,38.87
2023-05-08T01:58:52.989Z,38.98
2023-05-08T02:01:25.657Z,40.19
2023-05-08T02:03:54.801Z,41.08
2023-05-08T02:06:22.818Z,38.63
2023-05-08T02:08:51.507Z,38.96
2023-05-08T02:11:19.774Z,39.44
2023-05-08T02:13:48.665Z,40.23
2023-05-08T02:16:17.951Z,38.38
2023-05-08T02:18:52.530Z,39.00
2023-05-08T02:21:20.716Z,38.60
2023-05-08T02:23:48.531Z,37.58
2023-05-08T02:26:16.505Z,38.43
2023-05-08T02:28:45.410Z,39.28
2023-05-08T02:31:13.603Z,39.45
2023-05-08T02:33:42.543Z,39.86
2023-05-08T02:36:13.099Z,40.76
2023-05-08T02:38:44.141Z,39.78
2023-05-08T02:41:13.739Z,38.34
2023-05-08T02:43:41.018Z,39.41
2023-05-08T02:46:14.107Z,40.69
2023-05-08T02:48:44.642Z,44.68
2023-05-08T02:51:21.546Z,43.14
2023-05-08T02:54:19.882Z,42.36
2023-05-08T02:57:11.073Z,40.51
2023-05-08T02:59:44.016Z,41.98
2023-05-08T03:02:37.362Z,39.59
2023-05-08T03:05:14.573Z,43.96
2023-05-08T03:07:43.769Z,42.71
2023-05-08T03:10:16.953Z,38.83
2023-05-08T03:12:47.998Z,40.12
2023-05-08T03:15:26.037Z,42.77
2023-05-08T03:17:58.829Z,42.66
2023-05-08T03:20:27.165Z,41.03
2023-05-08T03:22:56.142Z,41.32
2023-05-08T03:25:24.261Z,41.54
2023-05-08T03:27:53.041Z,38.78
2023-05-08T03:30:21.347Z,42.49
2023-05-08T03:32:59.386Z,40.12
2023-05-08T03:35:27.896Z,40.98
2023-05-08T03:37:55.175Z,38.42
2023-05-08T03:40:22.093Z,40.38
2023-05-08T03:42:50.301Z,38.26
2023-05-08T03:45:19.027Z,39.89
2023-05-08T03:47:47.714Z,41.92
2023-05-08T03:50:16.105Z,39.40
2023-05-08T03:52:43.468Z,36.76
2023-05-08T03:55:10.381Z,39.13
2023-05-08T03:57:57.296Z,39.51
2023-05-08T04:00:42.570Z,37.86
2023-05-08T04:03:18.397Z,40.39
2023-05-08T04:06:30.802Z,36.11
2023-05-08T04:09:04.147Z,39.71
2023-05-08T04:11:38.595Z,39.79
2023-05-08T04:14:07.814Z,38.49
2023-05-08T04:16:48.431Z,41.64
2023-05-08T04:19:23.115Z,37.09
2023-05-08T04:21:51.654Z,41.11
2023-05-08T04:24:21.023Z,41.17
2023-05-08T04:26:48.715Z,41.14
2023-05-08T04:29:17.779Z,41.47
2023-05-08T04:31:45.603Z,39.82
2023-05-08T04:34:12.812Z,40.81
2023-05-08T04:36:40.417Z,42.25
2023-05-08T04:39:07.955Z,41.99
2023-05-08T04:41:35.976Z,42.96
2023-05-08T04:44:04.438Z,38.38
2023-05-08T04:46:31.637Z,37.87
2023-05-08T04:48:58.764Z,41.11
2023-05-08T04:51:29.499Z,40.99
2023-05-08T04:53:56.301Z,41.83
2023-05-08T04:56:23.246Z,45.19
2023-05-08T04:58:51.202Z,42.23
2023-05-08T05:01:18.430Z,42.04
2023-05-08T05:03:45.341Z,38.62
2023-05-08T05:06:12.749Z,39.42
2023-05-08T05:08:39.545Z,41.42
2023-05-08T05:11:07.148Z,41.93
2023-05-08T05:13:33.887Z,43.32
2023-05-08T05:16:00.873Z,43.17
2023-05-08T05:18:27.733Z,42.43
2023-05-08T05:20:58.112Z,41.90
2023-05-08T05:23:25.581Z,42.55
2023-05-08T05:25:52.697Z,42.37
2023-05-08T05:28:19.553Z,41.53
2023-05-08T05:30:49.462Z,39.29
2023-05-08T05:33:17.026Z,42.96
2023-05-08T05:35:44.423Z,40.25
2023-05-08T05:38:11.465Z,44.12
2023-05-08T05:40:38.634Z,43.43
2023-05-08T05:43:05.307Z,41.89
2023-05-08T05:45:33.613Z,44.40
2023-05-08T05:48:00.984Z,44.34
2023-05-08T05:50:28.669Z,46.09
2023-05-08T05:52:56.764Z,45.91
2023-05-08T05:55:23.717Z,42.78
2023-05-08T05:57:51.752Z,44.28
2023-05-08T06:00:19.236Z,41.00
2023-05-08T06:02:50.082Z,45.14
2023-05-08T06:05:19.709Z,47.34
2023-05-08T06:07:46.514Z,45.50
2023-05-08T06:10:13.399Z,41.10
2023-05-08T06:12:40.683Z,39.14
2023-05-08T06:15:09.462Z,40.08
2023-05-08T06:17:37.017Z,40.36
2023-05-08T06:20:04.458Z,40.11
2023-05-08T06:22:31.269Z,39.97
2023-05-08T06:24:58.649Z,43.00
2023-05-08T06:27:26.081Z,45.82
2023-05-08T06:29:53.397Z,45.63
2023-05-08T06:32:21.140Z,43.87
2023-05-08T06:34:49.146Z,46.67
2023-05-08T06:37:15.856Z,47.50
2023-05-08T06:39:42.662Z,44.88
2023-05-08T06:42:10.028Z,42.59
2023-05-08T06:44:41.318Z,42.02
2023-05-08T06:47:08.931Z,43.99
2023-05-08T06:49:37.261Z,41.63
2023-05-08T06:52:04.499Z,45.88
2023-05-08T06:54:31.256Z,45.05
2023-05-08T06:56:57.933Z,46.87
2023-05-08T06:59:24.999Z,45.27
2023-05-08T07:01:52.268Z,46.21
2023-05-08T07:04:19.348Z,43.67
2023-05-08T07:06:46.214Z,41.25
2023-05-08T07:09:12.995Z,42.73
2023-05-08T07:11:39.748Z,45.23
2023-05-08T07:14:07.582Z,45.89
2023-05-08T07:16:34.849Z,42.94
2023-05-08T07:19:01.717Z,42.80
2023-05-08T07:21:29.520Z,43.40
2023-05-08T07:23:56.733Z,44.25
2023-05-08T07:26:24.005Z,46.13
2023-05-08T07:28:54.349Z,42.32
2023-05-08T07:31:21.942Z,40.54
2023-05-08T07:33:49.688Z,42.94
2023-05-08T07:36:16.494Z,41.81
2023-05-08T07:38:43.274Z,43.09
2023-05-08T07:41:10.197Z,41.01
2023-05-08T07:43:37.934Z,43.28
2023-05-08T07:46:05.469Z,43.63
2023-05-08T07:48:32.219Z,41.47
2023-05-08T07:50:59.093Z,41.81
2023-05-08T07:53:25.976Z,43.34
2023-05-08T07:55:53.036Z,45.03
2023-05-08T07:58:21.132Z,42.36
2023-05-08T08:00:48.784Z,41.27
2023-05-08T08:03:15.492Z,37.98
2023-05-08T08:05:43.035Z,39.64
2023-05-08T08:08:09.775Z,40.15
2023-05-08T08:10:36.557Z,45.10
2023-05-08T08:13:03.311Z,42.48
2023-05-08T08:15:30.515Z,40.67
2023-05-08T08:17:57.574Z,39.42
2023-05-08T08:20:24.754Z,37.86
2023-05-08T08:22:51.430Z,40.79
2023-05-08T08:25:18.203Z,43.52
2023-05-08T08:27:44.939Z,41.02
2023-05-08T08:30:16.935Z,42.76
2023-05-08T08:32:44.999Z,40.86
2023-05-08T08:35:12.728Z,45.69
2023-05-08T08:37:40.337Z,45.21
2023-05-08T08:40:07.751Z,44.52
2023-05-08T08:42:35.730Z,43.29
2023-05-08T08:45:02.563Z,40.18
2023-05-08T08:47:34.839Z,41.84
2023-05-08T08:50:04.134Z,44.45
2023-05-08T08:52:41.320Z,43.99
2023-05-08T08:55:12.900Z,40.23
2023-05-08T08:57:48.705Z,38.47
2023-05-08T09:00:16.218Z,40.22
2023-05-08T09:02:43.673Z,39.65
2023-05-08T09:05:11.678Z,37.72
2023-05-08T09:07:39.822Z,39.02
2023-05-08T09:10:07.793Z,42.49
2023-05-08T09:12:34.657Z,38.93
2023-05-08T09:15:01.378Z,40.79
2023-05-08T09:17:28.268Z,41.29
2023-05-08T09:19:55.812Z,40.82
2023-05-08T09:22:24.624Z,42.34
2023-05-08T09:24:59.486Z,42.78
2023-05-08T09:27:28.096Z,44.33
2023-05-08T09:30:07.037Z,43.76
2023-05-08T09:32:35.935Z,42.33
2023-05-08T09:35:03.560Z,39.78
2023-05-08T09:37:30.748Z,38.64
2023-05-08T09:40:13.495Z,42.62
2023-05-08T09:42:41.063Z,40.34
2023-05-08T09:45:08.334Z,44.08
2023-05-08T09:47:39.640Z,41.91
2023-05-08T09:50:09.498Z,40.15
2023-05-08T09:52:38.238Z,37.55
2023-05-08T09:55:08.023Z,38.10
2023-05-08T09:57:38.308Z,40.92
2023-05-08T10:00:14.790Z,37.53
2023-05-08T10:02:53.488Z,38.35
2023-05-08T10:05:27.677Z,36.75
2023-05-08T10:07:54.633Z,39.53
2023-05-08T10:10:30.818Z,39.87
2023-05-08T10:12:58.802Z,38.88
2023-05-08T10:15:31.346Z,40.30
2023-05-08T10:18:03.174Z,35.13
2023-05-08T10:20:31.376Z,37.02
2023-05-08T10:22:59.286Z,40.42
2023-05-08T10:25:26.341Z,36.85
2023-05-08T10:28:28.711Z,37.06
2023-05-08T10:30:59.822Z,38.42
2023-05-08T10:33:33.533Z,37.35
2023-05-08T10:36:01.073Z,35.91
2023-05-08T10:38:28.022Z,36.39
2023-05-08T10:40:58.655Z,35.27
2023-05-08T10:43:26.311Z,36.00
2023-05-08T10:45:56.198Z,34.50
2023-05-08T10:48:45.377Z,37.23
2023-05-08T10:51:44.261Z,34.51
2023-05-08T10:54:19.381Z,33.00
2023-05-08T10:56:46.322Z,32.62
2023-05-08T10:59:20.763Z,37.63
2023-05-08T11:01:49.436Z,37.32
2023-05-08T11:04:22.229Z,35.61
2023-05-08T11:06:52.992Z,35.07
2023-05-08T11:09:27.085Z,35.63
2023-05-08T11:12:30.644Z,33.03
2023-05-08T11:15:02.050Z,34.47
2023-05-08T11:17:29.623Z,33.26
2023-05-08T11:20:00.155Z,36.85
2023-05-08T11:22:34.755Z,35.58
2023-05-08T11:25:11.445Z,34.42
2023-05-08T11:27:47.085Z,35.15
2023-05-08T11:30:35.006Z,36.27
2023-05-08T11:33:05.095Z,34.76
2023-05-08T11:35:43.360Z,33.83
2023-05-08T11:38:28.397Z,35.32
2023-05-08T11:41:03.338Z,33.60
2023-05-08T11:43:33.085Z,34.43
2023-05-08T11:46:10.770Z,31.68
2023-05-08T11:48:37.679Z,31.67
2023-05-08T11:51:04.611Z,31.33
2023-05-08T11:53:32.513Z,31.79
2023-05-08T11:56:00.604Z,31.64
2023-05-08T11:58:27.309Z,30.78
2023-05-08T12:00:54.782Z,31.47
2023-05-08T12:03:26.040Z,32.50
2023-05-08T12:05:57.483Z,33.38
2023-05-08T12:08:24.683Z,33.14
2023-05-08T12:10:57.268Z,35.03
2023-05-08T12:13:25.006Z,31.72
2023-05-08T12:16:01.004Z,34.36
2023-05-08T12:18:30.700Z,32.69
2023-05-08T12:20:59.747Z,32.53
2023-05-08T12:23:29.808Z,33.90
2023-05-08T12:26:01.109Z,32.70
2023-05-08T12:28:28.943Z,35.22
2023-05-08T12:30:56.234Z,33.47
2023-05-08T12:33:23.966Z,34.69
2023-05-08T12:35:50.989Z,33.80
2023-05-08T12:38:17.740Z,33.10
2023-05-08T12:40:46.551Z,33.59
2023-05-08T12:43:13.546Z,32.64
2023-05-08T12:45:42.933Z,36.09
2023-05-08T12:48:12.712Z,35.91
2023-05-08T12:50:41.607Z,34.93
2023-05-08T12:53:13.980Z,34.35
2023-05-08T12:55:53.666Z,33.86
2023-05-08T12:58:25.340Z,33.05
2023-05-08T13:00:54.798Z,33.16
2023-05-08T13:03:26.772Z,33.08
2023-05-08T13:05:55.602Z,31.00
2023-05-08T13:08:33.579Z,31.16
2023-05-08T13:11:01.518Z,32.09
2023-05-08T13:13:31.523Z,35.94
2023-05-08T13:16:02.455Z,34.96
2023-05-08T13:18:30.009Z,33.90
2023-05-08T13:20:57.835Z,38.60
2023-05-08T13:23:24.603Z,35.10
2023-05-08T13:25:51.687Z,33.85
2023-05-08T13:28:18.778Z,33.69
2023-05-08T13:30:46.147Z,34.33
2023-05-08T13:33:13.253Z,33.99
2023-05-08T13:35:40.083Z,36.72
2023-05-08T13:38:06.800Z,36.72
2023-05-08T13:40:33.687Z,33.96
2023-05-08T13:43:00.790Z,34.36
2023-05-08T13:45:27.925Z,32.46
2023-05-08T13:47:54.947Z,34.53
2023-05-08T13:50:22.510Z,35.04
2023-05-08T13:52:50.983Z,33.87
2023-05-08T13:55:21.912Z,34.68
2023-05-08T13:57:48.845Z,36.87
2023-05-08T14:00:16.162Z,34.90
2023-05-08T14:02:43.809Z,37.88
2023-05-08T14:05:10.678Z,36.57
2023-05-08T14:07:37.779Z,36.98
2023-05-08T14:10:05.075Z,32.93
2023-05-08T14:12:35.958Z,32.18
2023-05-08T14:15:06.350Z,34.58
2023-05-08T14:17:33.290Z,34.54
2023-05-08T14:20:00.538Z,35.36
2023-05-08T14:22:27.326Z,33.89
2023-05-08T14:24:54.261Z,34.12
2023-05-08T14:27:21.049Z,34.64
2023-05-08T14:29:48.110Z,36.95
2023-05-08T14:32:15.297Z,35.39
2023-05-08T14:34:42.422Z,38.21
2023-05-08T14:37:09.368Z,34.66
2023-05-08T14:39:36.098Z,33.71
2023-05-08T14:44:33.562Z,34.21
2023-05-08T14:47:00.548Z,33.79
2023-05-08T14:49:36.569Z,36.51
2023-05-08T14:52:05.712Z,34.61
2023-05-08T14:54:32.785Z,35.64
2023-05-08T14:56:59.855Z,35.77
2023-05-08T14:59:27.526Z,33.23
2023-05-08T15:01:55.189Z,37.04
2023-05-08T15:04:22.045Z,34.59
2023-05-08T15:06:49.289Z,35.24
2023-05-08T15:09:19.171Z,34.21
2023-05-08T15:11:45.925Z,33.36
2023-05-08T15:14:12.863Z,36.38
2023-05-08T15:16:39.851Z,35.00
2023-05-08T15:19:06.616Z,34.92
2023-05-08T15:21:33.584Z,33.79
2023-05-08T15:24:00.816Z,35.62
2023-05-08T15:26:28.081Z,33.75
2023-05-08T15:28:54.938Z,33.07
2023-05-08T15:31:21.790Z,36.01
2023-05-08T15:33:48.847Z,35.18
2023-05-08T15:36:16.054Z,34.65
2023-05-08T15:38:44.374Z,35.62
2023-05-08T15:41:15.444Z,35.60
2023-05-08T15:43:43.326Z,32.99
2023-05-08T15:46:10.467Z,33.05
2023-05-08T15:48:37.325Z,34.16
2023-05-08T15:51:04.349Z,33.68
2023-05-08T15:53:31.192Z,32.58
2023-05-08T15:55:58.500Z,32.70
2023-05-08T15:58:25.384Z,34.49
2023-05-08T16:00:52.304Z,35.65
2023-05-08T16:03:19.593Z,34.41
2023-05-08T16:05:46.409Z,34.35
2023-05-08T16:08:13.939Z,33.26
2023-05-08T16:10:41.936Z,34.27
2023-05-08T16:13:09.329Z,33.35
2023-05-08T16:15:36.201Z,36.20
2023-05-08T16:18:03.350Z,33.66
2023-05-08T16:20:30.592Z,32.79
2023-05-08T16:22:58.799Z,34.43
2023-05-08T16:25:25.905Z,33.18
2023-05-08T16:27:52.863Z,34.68
2023-05-08T16:30:19.772Z,35.25
2023-05-08T16:32:46.814Z,33.75
2023-05-08T16:35:14.246Z,34.99
2023-05-08T16:37:41.663Z,34.62
2023-05-08T16:40:09.480Z,36.26
2023-05-08T16:42:37.139Z,34.15
2023-05-08T16:45:08.146Z,33.09
2023-05-08T16:47:35.358Z,35.48
2023-05-08T16:50:03.221Z,37.35
2023-05-08T16:52:31.291Z,36.31
2023-05-08T16:54:59.223Z,34.47
2023-05-08T16:57:27.455Z,36.48
2023-05-08T16:59:54.752Z,34.11
2023-05-08T17:02:22.055Z,34.92
2023-05-08T17:04:49.972Z,35.14
2023-05-08T17:07:18.302Z,34.39
2023-05-08T17:09:48.306Z,37.15
2023-05-08T17:12:15.744Z,36.01
2023-05-08T17:14:42.729Z,34.09
2023-05-08T17:17:09.940Z,35.51
2023-05-08T17:19:36.766Z,36.03
2023-05-08T17:22:03.807Z,32.67
2023-05-08T17:24:32.586Z,35.82
2023-05-08T17:26:59.680Z,34.70
2023-05-08T17:29:26.567Z,35.70
2023-05-08T17:31:53.430Z,36.21
2023-05-08T17:34:22.804Z,33.64
2023-05-08T17:36:50.479Z,34.40
2023-05-08T17:39:20.117Z,34.70
2023-05-08T17:41:48.768Z,33.55
2023-05-08T17:44:16.698Z,33.26
2023-05-08T17:46:43.822Z,31.80
2023-05-08T17:49:11.798Z,32.46
2023-05-08T17:51:38.660Z,35.04
2023-05-08T17:54:06.486Z,32.90
2023-05-08T17:56:34.034Z,32.71
2023-05-08T17:59:01.355Z,32.17
2023-05-08T18:01:30.080Z,32.57
2023-05-08T18:03:56.966Z,33.17
2023-05-08T18:06:23.869Z,32.99
2023-05-08T18:08:51.217Z,32.86
2023-05-08T18:11:20.113Z,33.54
2023-05-08T18:13:47.212Z,33.04
2023-05-08T18:16:16.234Z,33.43
2023-05-08T18:18:43.326Z,32.92
2023-05-08T18:21:10.196Z,33.04
2023-05-08T18:23:37.337Z,32.53
2023-05-08T18:26:04.619Z,32.69
2023-05-08T18:28:32.194Z,32.25
2023-05-08T18:30:59.367Z,32.29
2023-05-08T18:33:27.417Z,33.79
2023-05-08T18:35:54.225Z,32.92
2023-05-08T18:38:21.451Z,32.96
2023-05-08T18:40:48.321Z,33.86
2023-05-08T18:43:15.621Z,34.86
2023-05-08T18:45:43.042Z,35.57
2023-05-08T18:48:11.157Z,35.48
2023-05-08T18:50:41.061Z,35.79
2023-05-08T18:53:10.129Z,35.65
2023-05-08T18:55:37.656Z,35.93
2023-05-08T18:58:06.469Z,35.71
2023-05-08T19:00:33.720Z,36.78
2023-05-08T19:03:01.540Z,37.07
2023-05-08T19:05:28.956Z,36.29
2023-05-08T19:07:56.279Z,36.68
2023-05-08T19:10:24.096Z,36.83
2023-05-08T19:12:51.908Z,36.42
2023-05-08T19:15:19.782Z,38.51
2023-05-08T19:17:47.863Z,36.60
2023-05-08T19:20:16.417Z,35.62
2023-05-08T19:22:43.911Z,35.79
2023-05-08T19:25:12.874Z,35.11
2023-05-08T19:27:40.239Z,36.21
2023-05-08T19:30:08.438Z,34.73
2023-05-08T19:32:35.671Z,36.91
2023-05-08T19:35:02.943Z,37.71
2023-05-08T19:37:31.189Z,36.43
2023-05-08T19:39:58.517Z,37.69
2023-05-08T19:42:26.079Z,36.22
2023-05-08T19:44:53.444Z,38.56
2023-05-08T19:47:21.236Z,36.60
2023-05-08T19:49:50.115Z,36.57
2023-05-08T19:52:17.904Z,36.46
2023-05-08T19:54:46.289Z,36.86
2023-05-08T19:57:13.464Z,36.45
2023-05-08T19:59:40.570Z,35.62
2023-05-08T20:02:07.395Z,35.14
2023-05-08T20:04:43.827Z,36.34
2023-05-08T20:07:21.118Z,36.51
2023-05-08T20:09:47.970Z,35.85
2023-05-08T20:12:14.756Z,36.76
2023-05-08T20:14:41.638Z,35.58
2023-05-08T20:17:08.747Z,36.68
2023-05-08T20:19:35.638Z,37.07
2023-05-08T20:22:03.174Z,37.67
2023-05-08T20:24:30.394Z,37.51
2023-05-08T20:26:58.202Z,38.07
2023-05-08T20:29:25.025Z,38.04
2023-05-08T20:31:52.584Z,36.62
2023-05-08T20:34:21.817Z,36.06
2023-05-08T20:36:49.446Z,36.73
2023-05-08T20:39:16.903Z,37.60
2023-05-08T20:41:43.664Z,38.46
2023-05-08T20:44:12.430Z,37.65
2023-05-08T20:46:40.729Z,37.87
2023-05-08T20:49:07.944Z,37.00
2023-05-08T20:51:36.486Z,37.99
2023-05-08T20:54:03.596Z,38.08
2023-05-08T20:56:30.470Z,37.41
2023-05-08T20:58:57.469Z,39.22
2023-05-08T21:01:24.206Z,38.99
2023-05-08T21:03:51.082Z,39.75
2023-05-08T21:06:18.364Z,37.59
2023-05-08T21:08:45.117Z,38.56
2023-05-08T21:11:12.630Z,37.64
2023-05-08T21:13:39.374Z,39.28
2023-05-08T21:16:07.893Z,38.66
2023-05-08T21:18:34.836Z,35.98
2023-05-08T21:21:01.911Z,37.61
2023-05-08T21:23:30.049Z,38.12
2023-05-08T21:25:56.778Z,38.48
2023-05-08T21:28:23.500Z,38.31
2023-05-08T21:30:50.302Z,37.54
2023-05-08T21:33:18.366Z,36.84
2023-05-08T21:35:45.396Z,37.42
2023-05-08T21:38:12.159Z,38.77
2023-05-08T21:40:39.388Z,38.36
2023-05-08T21:43:06.292Z,38.27
2023-05-08T21:45:34.068Z,38.48
2023-05-08T21:48:01.288Z,39.85
2023-05-08T21:50:28.553Z,40.14
2023-05-08T21:52:56.586Z,40.24
2023-05-08T21:55:23.939Z,38.67
2023-05-08T21:57:51.341Z,39.58
2023-05-08T22:00:19.053Z,38.96
2023-05-08T22:02:48.838Z,37.94
2023-05-08T22:05:15.783Z,38.21
2023-05-08T22:07:42.852Z,37.03
2023-05-08T22:10:11.532Z,38.04
2023-05-08T22:12:38.769Z,40.10
2023-05-08T22:15:14.811Z,37.49
2023-05-08T22:17:50.710Z,37.71
2023-05-08T22:20:18.731Z,37.42
2023-05-08T22:22:45.870Z,38.05
2023-05-08T22:25:12.782Z,39.40
2023-05-08T22:27:40.023Z,39.52
2023-05-08T22:30:07.554Z,39.01
2023-05-08T22:32:34.555Z,38.01
2023-05-08T22:35:01.285Z,39.69
2023-05-08T22:37:28.064Z,38.46
2023-05-08T22:39:54.966Z,39.56
2023-05-08T22:42:21.926Z,39.86
2023-05-08T22:44:49.062Z,38.90
2023-05-08T22:47:16.122Z,40.66
2023-05-08T22:49:43.643Z,40.38
2023-05-08T22:52:10.444Z,39.83
2023-05-08T22:54:37.218Z,41.50
2023-05-08T22:57:04.350Z,42.03
2023-05-08T22:59:31.111Z,41.37
2023-05-08T23:01:58.089Z,41.35
2023-05-08T23:04:25.175Z,41.46
2023-05-08T23:06:52.058Z,40.81
2023-05-08T23:09:19.182Z,40.12
2023-05-08T23:11:45.884Z,42.43
2023-05-08T23:14:12.714Z,39.91
2023-05-08T23:16:39.510Z,39.57
2023-05-08T23:19:07.399Z,38.05
2023-05-08T23:21:34.581Z,38.23
2023-05-08T23:24:01.371Z,37.72
2023-05-08T23:26:28.109Z,40.25
2023-05-08T23:28:54.816Z,42.15
2023-05-08T23:31:22.032Z,39.85
2023-05-08T23:33:48.785Z,42.77
2023-05-08T23:36:15.528Z,42.18
2023-05-08T23:38:42.378Z,41.14
2023-05-08T23:41:10.944Z,42.20
2023-05-08T23:43:37.857Z,41.91
2023-05-08T23:46:04.813Z,42.08
2023-05-08T23:48:31.671Z,40.16
2023-05-08T23:50:58.363Z,37.80
2023-05-08T23:53:25.084Z,37.80
2023-05-08T23:55:52.449Z,38.68
2023-05-08T23:58:19.714Z,37.37
